Time;durP1;ratioP1;P1;durP2;ratioP2;P2;SDS_P1;SDS_P2;PMS_P1;PMS_P2;Temp;Humidity;BMP_temperature;BMP_pressure;BME280_temperature;BME280_humidity;BME280_pressure;Samples;Min_cycle;Max_cycle;Signal;HPM_P1;HPM_P2
2022/08/30 00:01:21;;;;;;;10.10;7.70;;;;;;;25.28;58.62;97004.22;5087595;28;20282;-78
2022/08/30 00:03:48;;;;;;;9.53;7.80;;;;;;;24.79;61.70;97011.16;5087004;28;20845;-79
2022/08/30 00:06:18;;;;;;;12.47;7.77;;;;;;;24.64;62.42;97004.75;5086470;28;20187;-78
2022/08/30 00:08:47;;;;;;;10.47;8.37;;;;;;;24.40;62.90;97012.56;5087433;28;20209;-78
2022/08/30 00:11:18;;;;;;;10.50;8.30;;;;;;;24.20;64.08;97004.81;5085855;28;20186;-78
2022/08/30 00:13:46;;;;;;;10.57;7.97;;;;;;;24.24;63.93;97010.63;5087556;28;20189;-75
2022/08/30 00:16:14;;;;;;;10.80;7.97;;;;;;;24.25;64.02;97001.72;5085896;28;20195;-77
2022/08/30 00:18:42;;;;;;;14.73;9.40;;;;;;;24.18;64.13;97006.78;5087193;28;20190;-77
2022/08/30 00:21:10;;;;;;;11.13;9.10;;;;;;;24.15;64.11;97009.72;5086960;28;20805;-77
2022/08/30 00:23:38;;;;;;;13.23;9.07;;;;;;;24.03;64.60;97005.69;5086215;28;20209;-74
2022/08/30 00:26:06;;;;;;;14.27;8.67;;;;;;;24.04;64.97;96998.56;5087297;28;20204;-74
2022/08/30 00:28:35;;;;;;;13.03;8.83;;;;;;;23.96;64.96;97004.63;5085523;28;20228;-75
2022/08/30 00:31:03;;;;;;;15.97;8.97;;;;;;;23.90;65.05;97004.38;5086119;28;20736;-74
2022/08/30 00:33:31;;;;;;;18.73;9.13;;;;;;;23.91;65.29;96996.28;5068021;28;20701;-75
2022/08/30 00:35:59;;;;;;;17.67;9.67;;;;;;;23.91;65.30;97004.22;5086007;28;20199;-76
2022/08/30 00:38:26;;;;;;;17.70;9.33;;;;;;;23.89;65.60;96998.25;5086868;28;20708;-74
2022/08/30 00:40:53;;;;;;;12.40;9.60;;;;;;;23.94;65.55;97001.28;5085087;28;20696;-76
2022/08/30 00:43:24;;;;;;;13.77;9.60;;;;;;;23.83;66.44;97003.31;5087113;28;20202;-75
2022/08/30 00:45:54;;;;;;;13.83;9.70;;;;;;;23.88;66.39;96996.63;5086580;28;20249;-75
2022/08/30 00:48:22;;;;;;;15.10;9.53;;;;;;;24.04;66.10;96990.63;5089567;28;20718;-75
2022/08/30 00:50:58;;;;;;;15.03;9.73;;;;;;;24.11;65.68;96997.00;5089371;28;20604;-75
2022/08/30 00:53:29;;;;;;;12.77;10.17;;;;;;;24.02;65.68;96990.78;5090466;28;20862;-75
2022/08/30 00:55:58;;;;;;;10.53;8.93;;;;;;;24.04;66.47;96996.78;5089317;28;20199;-75
2022/08/30 00:58:35;;;;;;;16.63;10.10;;;;;;;23.79;67.04;96991.41;5089145;28;20276;-75
2022/08/30 01:01:05;;;;;;;17.77;10.07;;;;;;;23.44;67.81;96969.28;5089651;28;20200;-75
2022/08/30 01:03:35;;;;;;;11.77;9.70;;;;;;;23.68;67.55;96995.09;5089079;28;20185;-77
2022/08/30 01:06:04;;;;;;;13.63;9.70;;;;;;;23.74;67.39;96997.13;5090940;28;20185;-77
2022/08/30 01:08:31;;;;;;;13.97;9.77;;;;;;;23.67;67.66;96993.44;5089915;28;20249;-78
2022/08/30 01:10:59;;;;;;;13.90;9.53;;;;;;;23.81;67.76;96995.56;5090038;28;20189;-77
2022/08/30 01:13:28;;;;;;;13.53;9.27;;;;;;;23.71;67.55;96997.44;5090458;28;20295;-77
2022/08/30 01:15:58;;;;;;;13.60;9.80;;;;;;;23.63;67.91;97000.03;5089043;28;20188;-76
2022/08/30 01:18:26;;;;;;;12.80;9.50;;;;;;;23.67;67.56;97000.56;5090554;28;20193;-78
2022/08/30 01:21:14;;;;;;;13.93;9.30;;;;;;;23.75;67.59;96992.69;5088961;28;20587;-75
2022/08/30 01:23:44;;;;;;;14.27;9.50;;;;;;;23.84;67.10;97003.19;5090262;28;20260;-76
2022/08/30 01:26:14;;;;;;;12.97;9.63;;;;;;;23.99;66.64;96990.22;5090263;28;20567;-73
2022/08/30 01:28:46;;;;;;;14.10;9.53;;;;;;;24.06;66.56;96994.81;5087586;28;20226;-74
2022/08/30 01:31:14;;;;;;;14.30;10.63;;;;;;;23.93;66.21;96994.31;5090457;28;20640;-73
2022/08/30 01:33:42;;;;;;;14.93;10.37;;;;;;;24.01;65.85;96988.25;5088627;28;20189;-74
2022/08/30 01:36:12;;;;;;;14.67;10.00;;;;;;;23.94;65.56;96988.06;5088738;28;20193;-77
2022/08/30 01:38:45;;;;;;;19.07;10.47;;;;;;;23.98;66.13;96994.72;5087572;28;20201;-78
2022/08/30 01:41:17;;;;;;;10.93;9.27;;;;;;;23.98;65.22;97001.81;5071985;28;20774;-74
2022/08/30 01:43:45;;;;;;;13.33;9.50;;;;;;;23.65;65.94;96976.91;5089922;28;20246;-75
2022/08/30 01:46:15;;;;;;;15.70;10.03;;;;;;;23.81;65.63;96987.63;5088261;28;20624;-74
2022/08/30 01:48:43;;;;;;;16.73;9.67;;;;;;;23.78;65.31;96974.69;5089456;28;20229;-73
2022/08/30 01:51:25;;;;;;;16.57;9.67;;;;;;;23.92;65.31;96984.75;5088118;28;20680;-74
2022/08/30 01:53:53;;;;;;;12.73;9.50;;;;;;;24.06;64.46;96986.03;5089610;28;20549;-75
2022/08/30 01:56:22;;;;;;;10.87;8.87;;;;;;;23.84;65.02;96981.19;5087404;28;20181;-76
2022/08/30 01:58:49;;;;;;;14.23;9.30;;;;;;;23.69;65.98;96980.91;5088673;28;20934;-77
2022/08/30 02:01:19;;;;;;;13.50;8.93;;;;;;;23.73;65.21;96971.69;5089526;28;20615;-76
2022/08/30 02:03:47;;;;;;;18.30;9.83;;;;;;;23.79;64.96;96986.94;5088124;28;20289;-76
2022/08/30 02:06:17;;;;;;;11.43;9.20;;;;;;;23.64;65.83;96985.81;5088289;28;20192;-75
2022/08/30 02:08:45;;;;;;;13.73;9.30;;;;;;;23.50;65.82;96991.63;5086251;28;20787;-76
2022/08/30 02:11:13;;;;;;;10.00;8.87;;;;;;;23.16;67.27;96983.47;5089520;28;20190;-74
2022/08/30 02:13:43;;;;;;;13.20;10.03;;;;;;;23.17;67.56;96977.22;5088858;28;20705;-77
2022/08/30 02:16:15;;;;;;;17.23;10.40;;;;;;;23.11;67.70;96982.28;5088104;28;20191;-74
2022/08/30 02:18:43;;;;;;;13.73;10.13;;;;;;;23.03;67.65;96979.53;5089301;28;20662;-75
2022/08/30 02:21:11;;;;;;;11.17;9.97;;;;;;;23.15;67.55;96978.34;5087622;28;20825;-74
2022/08/30 02:23:41;;;;;;;15.90;9.77;;;;;;;23.05;67.68;96978.41;5089158;28;20242;-76
2022/08/30 02:26:08;;;;;;;14.83;9.57;;;;;;;;;;5086295;28;20203;-76
2022/08/30 02:28:36;;;;;;;12.03;9.83;;;;;;;23.18;67.25;96986.00;5088804;28;20215;-77
2022/08/30 02:31:16;;;;;;;14.03;9.30;;;;;;;23.18;66.81;96993.94;5089065;28;20707;-75
2022/08/30 02:33:49;;;;;;;14.20;9.60;;;;;;;23.08;66.95;96987.88;5087544;28;20190;-76
2022/08/30 02:36:17;;;;;;;18.13;9.97;;;;;;;23.35;67.01;96990.47;5089153;28;20248;-79
2022/08/30 02:38:45;;;;;;;15.40;9.43;;;;;;;23.54;65.58;96982.41;5087709;28;20220;-77
2022/08/30 02:41:13;;;;;;;14.17;9.67;;;;;;;23.52;66.35;96984.38;5088824;28;20633;-76
2022/08/30 02:43:40;;;;;;;15.23;9.97;;;;;;;23.51;65.62;96982.72;5087849;28;20182;-77
2022/08/30 02:46:07;;;;;;;13.03;10.17;;;;;;;23.12;67.15;96973.38;5088069;28;20238;-77
2022/08/30 02:48:34;;;;;;;14.13;8.77;;;;;;;23.01;67.47;96986.78;5088797;28;20246;-77
2022/08/30 02:51:10;;;;;;;12.97;9.30;;;;;;;22.94;68.16;96980.41;5087603;28;20253;-77
2022/08/30 02:53:40;;;;;;;10.83;9.13;;;;;;;23.06;67.49;96979.25;5087078;28;20287;-76
2022/08/30 02:56:08;;;;;;;14.93;9.30;;;;;;;22.91;67.55;96980.72;5086983;28;20838;-76
2022/08/30 02:58:36;;;;;;;20.07;10.70;;;;;;;22.73;68.01;96971.94;5088571;28;20222;-76
2022/08/30 03:01:04;;;;;;;18.13;10.33;;;;;;;22.51;68.89;96983.66;5087904;28;20187;-76
2022/08/30 03:03:32;;;;;;;15.57;11.13;;;;;;;22.30;69.50;96977.75;5087606;28;20213;-75
2022/08/30 03:06:02;;;;;;;11.63;10.27;;;;;;;22.17;70.08;96986.00;5088621;28;20191;-75
2022/08/30 03:08:30;;;;;;;16.00;9.53;;;;;;;22.20;70.08;96982.22;5086681;28;20240;-78
2022/08/30 03:10:58;;;;;;;14.80;9.27;;;;;;;22.39;69.56;96980.38;5088455;28;20692;-78
2022/08/30 03:13:29;;;;;;;14.43;10.53;;;;;;;22.21;69.56;96979.47;5086864;28;20186;-78
2022/08/30 03:15:57;;;;;;;15.13;10.67;;;;;;;22.14;70.34;96994.19;5088398;28;20190;-77
2022/08/30 03:18:25;;;;;;;13.70;9.63;;;;;;;22.04;70.42;96985.47;5086399;28;20185;-74
2022/08/30 03:20:52;;;;;;;17.07;10.13;;;;;;;22.31;69.65;96995.25;5086075;28;20186;-74
2022/08/30 03:23:21;;;;;;;12.77;9.80;;;;;;;22.40;69.22;96989.94;5086644;28;20295;-73
2022/08/30 03:25:49;;;;;;;10.97;9.87;;;;;;;22.61;68.62;96995.88;5085120;28;20593;-73
2022/08/30 03:28:16;;;;;;;11.83;10.23;;;;;;;22.44;69.42;96996.59;5087879;28;20269;-73
2022/08/30 03:30:43;;;;;;;13.27;10.20;;;;;;;22.10;70.88;97006.00;5085233;28;20188;-74
2022/08/30 03:33:10;;;;;;;15.33;10.10;;;;;;;22.33;70.25;96993.31;5087974;28;20189;-75
2022/08/30 03:35:37;;;;;;;13.47;10.53;;;;;;;22.32;69.31;96995.09;5085665;28;20194;-74
2022/08/30 03:38:05;;;;;;;16.33;10.90;;;;;;;22.03;70.50;96998.81;5087275;28;20181;-74
2022/08/30 03:40:32;;;;;;;15.40;11.47;;;;;;;22.03;70.17;97004.06;5088090;28;20195;-75
2022/08/30 03:43:00;;;;;;;16.40;11.10;;;;;;;22.01;70.49;97004.19;5074608;28;20271;-75
2022/08/30 03:45:27;;;;;;;16.07;11.93;;;;;;;22.09;70.22;97009.59;5066369;28;20725;-75
2022/08/30 03:47:57;;;;;;;24.70;12.20;;;;;;;22.24;69.36;96999.44;5065431;28;20199;-74
2022/08/30 03:50:24;;;;;;;15.00;11.90;;;;;;;22.45;68.50;97015.91;5067619;28;20222;-75
2022/08/30 03:52:51;;;;;;;21.47;12.07;;;;;;;22.50;68.83;97014.50;5066565;28;20182;-74
2022/08/30 03:55:19;;;;;;;16.37;11.20;;;;;;;22.63;68.14;97019.47;5065381;28;20252;-75
2022/08/30 03:57:48;;;;;;;15.50;11.90;;;;;;;22.54;68.36;97015.06;5066097;28;20619;-76
2022/08/30 04:00:18;;;;;;;16.47;11.80;;;;;;;22.24;69.26;97028.44;5065637;28;20790;-75
2022/08/30 04:02:45;;;;;;;17.23;12.00;;;;;;;22.22;69.74;97023.31;5067462;28;20618;-74
2022/08/30 04:05:13;;;;;;;14.83;12.27;;;;;;;22.36;69.29;97030.78;5064303;28;20200;-76
2022/08/30 04:07:45;;;;;;;17.13;12.57;;;;;;;22.41;68.81;97025.94;5067366;28;20681;-76
2022/08/30 04:10:12;;;;;;;15.23;11.47;;;;;;;22.42;68.74;97032.03;5074853;28;20226;-76
2022/08/30 04:12:39;;;;;;;19.23;13.03;;;;;;;22.22;69.20;97020.69;5068258;28;20270;-75
2022/08/30 04:15:11;;;;;;;20.13;12.73;;;;;;;22.66;68.32;97035.03;5067700;28;20273;-75
2022/08/30 04:17:39;;;;;;;19.00;11.53;;;;;;;22.93;67.31;97035.06;5065418;28;20191;-76
2022/08/30 04:20:07;;;;;;;17.67;11.63;;;;;;;22.61;68.01;97030.19;5068666;28;20201;-77
2022/08/30 04:22:35;;;;;;;15.10;11.73;;;;;;;22.81;67.47;97036.25;5069626;28;20183;-77
2022/08/30 04:25:04;;;;;;;12.73;10.70;;;;;;;23.09;66.42;97037.91;5069621;28;20199;-75
2022/08/30 04:27:31;;;;;;;17.13;11.23;;;;;;;;;;5068538;28;20278;-76
2022/08/30 04:30:39;;;;;;;16.47;11.37;;;;;;;22.95;66.36;97029.63;5070211;28;20717;-74
2022/08/30 04:33:59;;;;;;;15.30;10.93;;;;;;;23.15;66.38;97033.84;5070817;28;20193;-75
2022/08/30 04:37:21;;;;;;;17.03;10.23;;;;;;;23.21;65.91;97038.53;5068648;28;20201;-75
2022/08/30 04:40:42;;;;;;;18.77;10.90;;;;;;;23.24;66.10;97031.16;5068754;28;20225;-75
2022/08/30 04:44:03;;;;;;;13.70;9.67;;;;;;;23.43;65.29;97035.53;5067064;28;20198;-75
2022/08/30 04:47:23;;;;;;;18.23;11.10;;;;;;;23.48;64.89;97035.91;5070242;28;20189;-75
2022/08/30 04:50:44;;;;;;;16.33;11.47;;;;;;;23.54;64.75;97042.38;5070193;28;20229;-76
2022/08/30 04:54:05;;;;;;;14.90;10.47;;;;;;;23.82;64.25;97041.34;5068882;28;20194;-74
2022/08/30 04:57:26;;;;;;;20.60;10.57;;;;;;;24.30;63.25;97041.78;5066542;28;20180;-76
2022/08/30 05:00:46;;;;;;;17.47;10.37;;;;;;;24.30;62.26;97046.25;5069687;28;20186;-76
2022/08/30 05:04:09;;;;;;;17.80;10.53;;;;;;;24.00;63.38;97043.00;5070105;28;20717;-77
2022/08/30 05:07:31;;;;;;;13.80;10.13;;;;;;;23.96;63.49;97040.81;5069841;28;20749;-77
2022/08/30 05:10:52;;;;;;;13.60;9.23;;;;;;;24.19;63.09;97056.09;5068129;28;20608;-77
2022/08/30 05:14:13;;;;;;;15.50;10.10;;;;;;;24.42;62.67;97047.66;5066743;28;20188;-75
2022/08/30 05:17:36;;;;;;;13.60;9.87;;;;;;;24.38;63.05;97046.31;5053951;28;20194;-76
2022/08/30 05:20:56;;;;;;;20.07;10.60;;;;;;;24.81;61.57;97051.56;5069423;28;20191;-75
2022/08/30 05:24:17;;;;;;;15.90;9.80;;;;;;;25.19;60.55;97051.06;5068303;28;20198;-75
2022/08/30 05:27:39;;;;;;;13.53;9.70;;;;;;;25.65;59.76;97058.56;5065789;28;20633;-76
2022/08/30 05:31:00;;;;;;;15.30;9.03;;;;;;;25.88;58.26;97049.97;5066955;28;20724;-75
2022/08/30 05:34:20;;;;;;;15.27;9.20;;;;;;;25.65;58.81;97060.38;5069371;28;20249;-75
2022/08/30 05:37:41;;;;;;;15.73;11.37;;;;;;;25.68;59.00;97058.22;5050266;28;20719;-75
2022/08/30 05:41:02;;;;;;;17.47;10.63;;;;;;;25.89;58.41;97060.41;5065649;28;20270;-75
2022/08/30 05:44:22;;;;;;;21.23;10.93;;;;;;;26.22;57.50;97056.78;5068063;28;20253;-75
2022/08/30 05:47:46;;;;;;;26.73;14.77;;;;;;;26.37;57.25;97060.44;5069138;28;20191;-75
2022/08/30 05:51:07;;;;;;;16.27;10.70;;;;;;;26.50;56.46;97062.59;5067588;28;20542;-76
2022/08/30 05:54:28;;;;;;;13.53;10.30;;;;;;;26.52;56.67;97052.63;5065550;28;20224;-76
2022/08/30 05:57:51;;;;;;;13.07;9.60;;;;;;;26.57;56.06;97055.59;5065491;28;20197;-75
2022/08/30 06:01:12;;;;;;;16.07;10.03;;;;;;;26.11;57.83;97049.16;5068577;28;20193;-77
2022/08/30 06:04:32;;;;;;;13.40;9.73;;;;;;;26.31;56.68;97053.16;5069094;28;20807;-78
2022/08/30 06:07:53;;;;;;;16.27;9.50;;;;;;;26.38;57.31;97050.63;5065776;28;20622;-75
2022/08/30 06:11:14;;;;;;;15.03;9.67;;;;;;;26.76;55.39;97057.94;5066945;28;20216;-76
2022/08/30 06:14:35;;;;;;;20.27;9.07;;;;;;;27.06;54.64;97054.50;5049116;28;20189;-75
2022/08/30 06:17:57;;;;;;;10.40;8.57;;;;;;;26.73;56.59;97060.91;5051895;28;20633;-75
2022/08/30 06:21:18;;;;;;;13.57;9.13;;;;;;;26.21;58.04;97049.00;5066323;28;20208;-78
2022/08/30 06:24:39;;;;;;;14.80;10.53;;;;;;;26.24;58.60;97060.13;5050188;28;20189;-75
2022/08/30 06:28:00;;;;;;;15.23;9.67;;;;;;;26.51;58.00;97051.81;5066791;28;20298;-76
2022/08/30 06:31:20;;;;;;;16.23;10.30;;;;;;;26.94;56.35;97071.81;5068243;28;20221;-76
2022/08/30 06:34:41;;;;;;;14.80;10.50;;;;;;;27.04;56.39;97061.81;5066152;28;20200;-75
2022/08/30 06:38:02;;;;;;;13.87;9.43;;;;;;;26.87;56.82;97060.25;5067251;28;20259;-74
2022/08/30 06:41:23;;;;;;;12.30;10.37;;;;;;;26.94;56.41;97069.16;5064601;28;20207;-77
2022/08/30 06:44:53;;;;;;;22.23;17.40;;;;;;;27.08;56.16;97065.00;5065283;28;20294;-75
2022/08/30 06:48:15;;;;;;;15.47;9.40;;;;;;;27.42;55.07;97059.38;5065924;28;20583;-75
2022/08/30 06:51:38;;;;;;;21.47;11.60;;;;;;;27.90;53.21;97062.56;5067622;28;20703;-75
2022/08/30 06:54:59;;;;;;;16.70;10.37;;;;;;;28.33;51.90;97065.63;5063756;28;20243;-75
2022/08/30 06:58:20;;;;;;;17.57;10.47;;;;;;;28.51;51.92;97061.63;5065516;28;20247;-75
2022/08/30 07:01:41;;;;;;;14.37;9.77;;;;;;;28.76;50.77;97065.75;5065107;28;20193;-75
2022/08/30 07:05:02;;;;;;;15.77;9.50;;;;;;;28.83;50.47;97074.66;5067192;28;20232;-76
2022/08/30 07:08:23;;;;;;;16.83;10.23;;;;;;;28.90;50.17;97070.25;5066481;28;20189;-77
2022/08/30 07:11:49;;;;;;;22.03;10.67;;;;;;;29.00;49.74;97067.31;5062970;28;20232;-77
2022/08/30 07:15:11;;;;;;;17.60;10.73;;;;;;;28.66;50.59;97080.34;5066237;28;20192;-76
2022/08/30 07:18:50;;;;;;;20.70;13.37;;;;;;;28.69;50.21;97079.97;5067034;28;20665;-77
2022/08/30 07:22:14;;;;;;;14.50;9.30;;;;;;;28.47;50.17;97084.31;5067528;28;20190;-76
2022/08/30 07:25:38;;;;;;;17.60;10.17;;;;;;;28.48;51.16;97083.28;5047418;28;20229;-77
2022/08/30 07:29:02;;;;;;;14.87;8.87;;;;;;;28.40;50.55;97082.56;5065186;28;20197;-78
2022/08/30 07:32:25;;;;;;;16.60;10.20;;;;;;;28.95;48.66;97085.72;5066088;28;20198;-75
2022/08/30 07:35:46;;;;;;;12.90;8.47;;;;;;;28.94;48.99;97084.88;5067068;28;20274;-76
2022/08/30 07:39:08;;;;;;;9.73;8.23;;;;;;;28.83;49.32;97085.31;5050270;28;20244;-76
2022/08/30 07:42:29;;;;;;;13.13;8.50;;;;;;;28.93;48.91;97093.06;5065309;28;20185;-76
2022/08/30 07:45:53;;;;;;;14.53;8.47;;;;;;;29.05;48.18;97085.44;5062897;28;20627;-77
2022/08/30 07:49:14;;;;;;;12.73;8.37;;;;;;;28.24;49.39;97096.81;5065546;28;20186;-76
2022/08/30 07:52:35;;;;;;;12.17;7.63;;;;;;;28.51;49.01;97093.59;5064939;28;20625;-76
2022/08/30 07:55:58;;;;;;;11.77;8.37;;;;;;;28.95;48.24;97097.19;5064999;28;20272;-76
2022/08/30 07:59:18;;;;;;;13.97;8.70;;;;;;;29.23;46.96;97097.41;5046181;28;20189;-75
2022/08/30 08:02:40;;;;;;;13.57;9.03;;;;;;;29.11;47.27;97090.03;5065708;28;20192;-75
2022/08/30 08:06:01;;;;;;;11.30;8.30;;;;;;;29.37;45.72;97101.06;5066424;28;20185;-75
2022/08/30 08:09:22;;;;;;;11.70;8.23;;;;;;;29.63;44.10;97099.59;5064078;28;20214;-76
2022/08/30 08:12:42;;;;;;;11.57;7.97;;;;;;;29.69;43.70;97095.34;5064236;28;20195;-76
2022/08/30 08:16:03;;;;;;;10.77;7.17;;;;;;;29.96;43.51;97094.66;5062437;28;20185;-78
2022/08/30 08:19:25;;;;;;;11.30;6.97;;;;;;;29.91;44.57;97098.91;5064219;28;20268;-77
2022/08/30 08:22:46;;;;;;;9.20;7.40;;;;;;;30.03;42.59;97098.22;5065801;28;20250;-76
2022/08/30 08:26:06;;;;;;;9.43;6.83;;;;;;;30.45;41.25;97097.41;5064406;28;20188;-78
2022/08/30 08:29:29;;;;;;;8.90;6.10;;;;;;;30.33;40.59;97091.78;5061954;28;20200;-75
2022/08/30 08:32:49;;;;;;;8.90;6.70;;;;;;;30.38;40.50;97096.53;5063513;28;20221;-76
2022/08/30 08:36:11;;;;;;;13.73;8.97;;;;;;;30.70;39.66;97095.16;5066450;28;20577;-78
2022/08/30 08:39:32;;;;;;;12.20;7.90;;;;;;;30.53;39.58;97106.13;5063660;28;20212;-77
2022/08/30 08:42:52;;;;;;;11.00;7.17;;;;;;;30.66;39.70;97094.72;5064031;28;20235;-75
2022/08/30 08:46:14;;;;;;;11.57;8.40;;;;;;;30.91;38.96;97097.81;5064677;28;20314;-75
2022/08/30 08:49:35;;;;;;;14.33;8.20;;;;;;;31.10;38.19;97102.47;5065719;28;20189;-79
2022/08/30 08:56:20;;;;;;;14.37;7.40;;;;;;;31.09;38.39;97092.78;5064774;28;20190;-77
2022/08/30 08:59:43;;;;;;;11.67;6.77;;;;;;;31.22;39.42;97111.63;5063036;28;20224;-77
2022/08/30 09:02:47;;;;;;;11.67;6.67;;;;;;;31.09;38.67;97095.47;5049265;28;20199;-79
2022/08/30 09:06:15;;;;;;;9.20;6.00;;;;;;;31.20;38.40;97079.66;5066428;28;20201;-77
2022/08/30 09:09:42;;;;;;;9.97;6.63;;;;;;;30.92;38.63;97088.75;5066505;28;20200;-77
2022/08/30 09:13:03;;;;;;;12.57;6.40;;;;;;;31.16;39.48;97083.75;5066043;28;20191;-77
2022/08/30 09:16:24;;;;;;;9.40;6.13;;;;;;;31.53;38.09;97077.19;5066891;28;20200;-79
2022/08/30 09:19:35;;;;;;;10.50;6.25;;;;;;;31.77;37.47;97079.34;5067794;28;20681;-77
2022/08/30 09:22:55;;;;;;;7.10;5.70;;;;;;;31.98;37.56;97081.88;5068957;28;20189;-79
2022/08/30 09:25:56;;;;;;;13.27;6.87;;;;;;;32.02;37.15;97080.50;5065297;28;20186;-77
2022/08/30 09:29:23;;;;;;;9.68;6.78;;;;;;;31.98;37.01;97075.72;5066327;28;20199;-77
2022/08/30 09:32:46;;;;;;;14.35;6.78;;;;;;;31.99;36.89;97067.47;5069006;28;20189;-77
2022/08/30 09:36:14;;;;;;;11.68;6.10;;;;;;;31.98;37.16;97071.19;5052602;28;20250;-77
2022/08/30 09:39:27;;;;;;;8.00;6.43;;;;;;;31.47;38.02;97072.63;5051186;28;20200;-76
2022/08/30 09:42:53;;;;;;;10.43;6.90;;;;;;;31.62;36.99;97059.09;5050483;28;20196;-75
2022/08/30 09:46:01;;;;;;;7.87;6.47;;;;;;;31.85;37.06;97065.78;5068103;28;20251;-79
2022/08/30 09:49:22;;;;;;;9.57;7.10;;;;;;;31.86;37.22;97051.34;5068983;28;20653;-79
2022/08/30 09:52:35;;;;;;;7.00;5.70;;;;;;;31.53;37.75;97057.63;5065642;28;20193;-76
2022/08/30 09:55:35;;;;;;;12.27;7.20;;;;;;;31.25;38.85;97049.63;5050043;28;20224;-76
2022/08/30 09:58:45;;;;;;;9.97;6.67;;;;;;;31.55;38.34;97047.53;5066706;28;20279;-76
2022/08/30 10:02:11;;;;;;;10.33;7.03;;;;;;;31.27;38.33;97044.91;5066159;28;20355;-77
2022/08/30 10:05:35;;;;;;;8.43;6.37;;;;;;;31.34;38.29;97040.44;5067088;28;20193;-76
2022/08/30 10:08:38;;;;;;;7.97;6.00;;;;;;;31.12;39.52;97041.53;5066724;28;20243;-76
2022/08/30 10:12:05;;;;;;;11.77;6.33;;;;;;;30.64;40.40;97042.44;5068082;28;20184;-76
2022/08/30 10:14:49;;;;;;;8.40;6.60;;;;;;;30.93;39.04;96999.47;5066461;28;20193;-76
2022/08/30 10:18:03;;;;;;;11.33;8.17;;;;;;;31.24;39.08;97042.66;5063153;28;20794;-76
2022/08/30 10:21:18;;;;;;;13.53;7.00;;;;;;;31.28;39.62;97030.53;5067471;28;20200;-75
2022/08/30 10:24:51;;;;;;;8.80;6.40;;;;;;;31.29;39.53;97024.97;5034769;28;20193;-79
2022/08/30 10:28:22;;;;;;;13.17;6.30;;;;;;;31.22;39.87;97015.25;5066435;28;20193;-76
2022/08/30 10:31:23;;;;;;;9.30;6.20;;;;;;;30.98;40.77;97029.13;5056766;28;20236;-76
2022/08/30 10:34:47;;;;;;;11.00;6.83;;;;;;;30.95;39.75;97016.16;5050189;28;20315;-75
2022/08/30 10:38:18;;;;;;;10.20;6.47;;;;;;;31.29;39.31;97008.06;5066920;28;20181;-77
2022/08/30 10:41:22;;;;;;;9.07;5.80;;;;;;;31.31;38.98;97003.34;5067419;28;20549;-78
2022/08/30 10:44:03;;;;;;;9.57;6.27;;;;;;;31.55;39.34;97010.84;5065990;28;20221;-75
2022/08/30 10:47:22;;;;;;;7.23;6.07;;;;;;;31.05;40.28;97021.97;5066412;28;20572;-78
2022/08/30 10:50:43;;;;;;;13.03;6.33;;;;;;;30.72;40.25;97019.06;5067331;28;20232;-76
2022/08/30 10:54:07;;;;;;;9.70;6.20;;;;;;;30.62;40.65;97017.75;5067776;28;20189;-77
2022/08/30 10:57:27;;;;;;;10.20;5.97;;;;;;;30.33;41.03;97026.78;5065851;28;20200;-76
2022/08/30 11:00:48;;;;;;;9.63;6.00;;;;;;;30.12;40.77;97018.75;5066076;28;20181;-75
2022/08/30 11:04:12;;;;;;;9.00;6.23;;;;;;;30.31;39.94;97021.66;5050609;28;20695;-75
2022/08/30 11:06:56;;;;;;;6.73;5.47;;;;;;;30.45;40.09;97026.06;5067342;28;20774;-75
2022/08/30 11:10:08;;;;;;;16.07;6.97;;;;;;;30.46;38.85;97027.72;5065416;28;20225;-76
2022/08/30 11:13:09;;;;;;;9.27;6.10;;;;;;;30.62;39.56;97012.41;5066003;28;20680;-78
2022/08/30 11:16:53;;;;;;;10.97;6.20;;;;;;;30.44;39.39;97008.38;5067139;28;20705;-76
2022/08/30 11:20:17;;;;;;;14.43;6.60;;;;;;;30.91;39.77;97006.88;5066711;28;20193;-79
2022/08/30 11:23:17;;;;;;;8.00;5.30;;;;;;;30.71;40.05;97011.25;5065393;28;20189;-77
2022/08/30 11:26:39;;;;;;;8.87;6.07;;;;;;;30.71;41.43;97008.56;5065292;28;20190;-78
2022/08/30 11:29:32;;;;;;;12.33;6.47;;;;;;;30.78;40.78;97001.41;5063173;28;20247;-78
2022/08/30 11:32:16;;;;;;;8.93;5.70;;;;;;;30.65;40.55;97006.66;5066445;28;20181;-76
2022/08/30 11:35:35;;;;;;;8.17;5.53;;;;;;;31.07;40.63;96999.34;5048765;28;20193;-76
2022/08/30 11:38:37;;;;;;;11.37;6.53;;;;;;;31.29;40.00;97006.22;5066711;28;20241;-76
2022/08/30 11:42:07;;;;;;;11.93;7.87;;;;;;;31.25;38.42;96982.72;5066464;28;20265;-77
2022/08/30 11:45:23;;;;;;;11.50;6.00;;;;;;;30.96;40.02;96980.31;5063456;28;20330;-78
2022/08/30 11:48:44;;;;;;;7.13;5.90;;;;;;;30.84;39.65;96964.00;5065203;28;20185;-77
2022/08/30 11:51:46;;;;;;;9.40;5.97;;;;;;;31.14;39.23;96972.63;5047876;28;20216;-76
2022/08/30 11:55:02;;;;;;;8.17;5.90;;;;;;;31.20;38.69;96972.63;5066679;28;20199;-79
2022/08/30 11:58:23;;;;;;;10.37;6.00;;;;;;;31.27;39.36;96968.13;5064079;28;20201;-76
2022/08/30 12:01:50;;;;;;;8.63;5.90;;;;;;;31.40;38.83;96964.69;5064954;28;20225;-77
2022/08/30 12:05:14;;;;;;;7.47;5.70;;;;;;;31.13;38.35;96965.59;5066327;28;20186;-79
2022/08/30 12:08:36;;;;;;;10.07;5.83;;;;;;;30.84;37.95;96961.31;5066373;28;20250;-76
2022/08/30 12:11:17;;;;;;;7.43;5.30;;;;;;;30.67;39.92;96961.81;5066307;28;20189;-77
2022/08/30 12:14:41;;;;;;;9.60;5.80;;;;;;;30.81;38.96;96961.69;5048256;28;20200;-75
2022/08/30 12:21:17;;;;;;;9.30;6.37;;;;;;;30.86;40.48;96955.78;5058641;28;20200;-76
2022/08/30 12:24:44;;;;;;;6.97;5.90;;;;;;;30.67;39.12;96951.97;5066006;28;20204;-75
2022/08/30 12:28:08;;;;;;;10.10;5.67;;;;;;;30.88;38.64;96959.09;5064764;28;20242;-76
2022/08/30 12:31:29;;;;;;;7.97;4.80;;;;;;;30.81;36.21;96958.22;5065489;28;20228;-75
2022/08/30 12:34:36;;;;;;;9.73;5.27;;;;;;;30.68;37.33;96966.16;5066348;28;20296;-76
2022/08/30 12:37:59;;;;;;;7.60;5.63;;;;;;;30.67;37.51;96964.50;5066216;28;20197;-76
2022/08/30 12:41:21;;;;;;;9.50;5.97;;;;;;;30.75;38.28;96953.66;5063392;28;20200;-76
2022/08/30 12:44:42;;;;;;;12.03;6.97;;;;;;;31.12;38.32;96942.53;5068933;28;20228;-75
2022/08/30 12:48:11;;;;;;;9.20;5.97;;;;;;;30.83;37.78;96959.66;5070155;28;20196;-75
2022/08/30 12:51:41;;;;;;;9.53;5.60;;;;;;;30.66;39.14;96949.50;5051466;28;20220;-77
2022/08/30 12:55:03;;;;;;;7.47;6.07;;;;;;;30.72;40.12;96949.53;5060649;28;20216;-76
2022/08/30 12:58:22;;;;;;;9.23;6.10;;;;;;;30.52;40.90;96944.06;5066353;28;20192;-75
2022/08/30 13:01:50;;;;;;;12.50;6.23;;;;;;;30.58;40.68;96933.59;5066726;28;20626;-76
2022/08/30 13:05:17;;;;;;;9.30;6.40;;;;;;;30.88;40.80;96932.34;5069798;28;20196;-76
2022/08/30 13:08:33;;;;;;;11.23;6.17;;;;;;;30.41;40.00;96931.25;5053197;28;20200;-75
2022/08/30 13:11:20;;;;;;;9.43;6.53;;;;;;;30.19;41.62;96926.13;5066247;28;20190;-75
2022/08/30 13:14:38;;;;;;;7.17;5.87;;;;;;;30.72;41.13;96916.59;5068564;28;20194;-76
2022/08/30 13:17:59;;;;;;;9.60;6.60;;;;;;;30.74;40.78;96911.88;5069657;28;20242;-78
2022/08/30 13:21:29;;;;;;;10.60;6.53;;;;;;;30.81;41.24;96896.72;5050695;28;20247;-76
2022/08/30 13:24:52;;;;;;;10.17;7.20;;;;;;;30.76;40.71;96896.47;5066151;28;20200;-75
2022/08/30 13:28:13;;;;;;;9.40;6.67;;;;;;;30.71;40.93;96896.25;5067710;28;20544;-76
2022/08/30 13:31:35;;;;;;;11.43;6.77;;;;;;;30.57;40.79;96905.22;5067300;28;21452;-77
2022/08/30 13:34:56;;;;;;;9.17;6.57;;;;;;;30.60;40.68;96912.84;5067000;28;20201;-76
2022/08/30 13:38:17;;;;;;;9.20;6.60;;;;;;;30.62;40.88;96900.94;5068491;28;20196;-77
2022/08/30 13:41:38;;;;;;;10.00;7.00;;;;;;;30.81;41.35;96900.19;5067561;28;20196;-76
2022/08/30 13:44:58;;;;;;;7.20;5.67;;;;;;;31.10;40.67;96910.63;5066283;28;20236;-75
2022/08/30 13:48:19;;;;;;;12.47;6.70;;;;;;;31.31;40.99;96907.81;5067013;28;20189;-78
2022/08/30 13:51:40;;;;;;;9.57;6.63;;;;;;;31.35;41.04;96902.84;5051582;28;20236;-76
2022/08/30 13:55:01;;;;;;;10.10;6.67;;;;;;;31.00;41.12;96901.31;5066331;28;20203;-75
2022/08/30 13:58:22;;;;;;;12.33;8.13;;;;;;;30.70;41.78;96870.53;5067675;28;20262;-76
2022/08/30 14:01:44;;;;;;;8.67;7.67;;;;;;;30.52;44.84;96895.94;5047279;28;20708;-78
2022/08/30 14:05:06;;;;;;;9.50;7.70;;;;;;;30.55;44.30;96902.75;5072489;28;20211;-76